Roanoke, VA (24022)

12:18 AM EDT on September 03, 2014 (GMT -0400)
Hurt Park ES | Change Station
CLOSE
Current Station
Personal Weather Station
Location: Roanoke, VA
Elevation: 1010 ft
Nearby Weather Stations

Elev 1010 ft 37.28 °N, 79.97 °W | Updated 3 minutes ago

Light Thunderstorms and Rain
Light Thunderstorm Rain Mist
70.5 °F
Feels Like 70.5 °F
N
1.0
Wind Variable Wind from NNW
Gusts 9.0 mph

Today
High -- | Low -- °F
--% Chance of Precip.
Yesterday
High -- | Low -- °F
Precip. -- in
6:51 AM 7:45 PM
First Quarter, 58% visible
Pressure 30.04 in
Visibility 6.0 miles
Clouds Few 1300 ft
Scattered Clouds 8000 ft
Mostly Cloudy 10000 ft
Dew Point 69 °F
Humidity 95%
Rainfall 0.03 in
Snow Depth Not available.
UV 0 out of 12
Pollen 10.60 out of 12
PM2.5 Moderate
Flu Activity Not available.
METAR KROA 030354Z 27005KT 6SM -TSRA BR FEW013 SCT080 BKN100 21/20 A3008 RMK AO2 TSE49B51 SLP172 LTCC E MOV E P0039 T02110200

More Conditions Fewer Conditions

Pressure 30.04 in
Visibility 6.0 miles
Clouds Few 1300 ft
Scattered Clouds 8000 ft
Mostly Cloudy 10000 ft
Dew Point 69 °F
Humidity 95%
Rainfall 0.03 in
Snow Depth Not available.
UV 0 out of 12
Pollen 10.60 out of 12
PM2.5 Moderate
Flu Activity Not available.
METAR KROA 030354Z 27005KT 6SM -TSRA BR FEW013 SCT080 BKN100 21/20 A3008 RMK AO2 TSE49B51 SLP172 LTCC E MOV E P0039 T02110200

More Conditions Fewer Conditions

10-Day Weather Forecast

Almanac

Astronomy

Sep. 03, 2014 Rise Set
Actual Time 6:51 AM EDT 7:45 PM EDT
Civil Twilight 6:25 AM EDT 8:12 PM EDT
Nautical Twilight 5:53 AM EDT 8:43 PM EDT
Astronomical Twilight 5:21 AM EDT 9:15 PM EDT
Moon 3:21 PM EDT 12:48 AM EDT
Length of Visible Light 13h 46m
Length of Day
12h 53m
Tomorrow will be 2m 18s shorter.
First Quarter, 58% of the Moon is Illuminated
Today
First Quarter
Sep 8
Full
Sep 15
Last Quarter
Sep 24
New
Oct 1
First Quarter

Yesterday's Extremes

State Highs State Lows

Community

WunderPhotos

Upload Photos

1,749,868 photos uploaded!

Nearby

Air Quality

  Air Quality AQ Index Pollutant
Yesterday Good
PM2.5
Yesterday Good
OZONE
Current Moderate
PM2.5
Tuesday Moderate
PM2.5
Tuesday Good
OZONE
Wednesday Moderate
PM2.5
Wednesday Good
OZONE

Snow Depth

Station Depth Elevation
No new snow has been reported.

Earthquake Activity

City Distance Mag. Time & Date
No recent earthquake activity has been reported nearby.
Minimum magnitude displayed is 2.5.

Coastal Water Temperatures

Place Temperature
No Stations Reporting

Nearby Weather Stations